Time;durP1;ratioP1;P1;durP2;ratioP2;P2;SDS_P1;SDS_P2;PMS_P1;PMS_P2;Temp;Humidity;BMP_temperature;BMP_pressure;BME280_temperature;BME280_humidity;BME280_pressure;Samples;Min_cycle;Max_cycle;Signal;HPM_P1;HPM_P2
2023/08/03 00:00:28;;;;;;;4.70;2.80;;;16.90;99.90;;;;;;4981721;28;20277;-69
2023/08/03 00:02:54;;;;;;;3.77;3.47;;;16.90;99.90;;;;;;4974465;28;20696;-69
2023/08/03 00:05:20;;;;;;;5.00;3.00;;;17.00;99.90;;;;;;4974564;28;20195;-69
2023/08/03 00:07:46;;;;;;;9.17;2.77;;;17.00;99.90;;;;;;4982310;28;20203;-69
2023/08/03 00:10:12;;;;;;;4.53;2.57;;;17.00;99.90;;;;;;4976167;28;20451;-69
2023/08/03 00:12:38;;;;;;;4.90;2.53;;;17.00;99.90;;;;;;4977164;28;20462;-69
2023/08/03 00:15:04;;;;;;;6.93;2.60;;;17.00;99.90;;;;;;4984883;28;20180;-69
2023/08/03 00:17:29;;;;;;;9.00;4.00;;;17.10;99.90;;;;;;4978495;28;20208;-69
2023/08/03 00:19:55;;;;;;;7.53;2.77;;;17.20;99.90;;;;;;4975125;28;20455;-69
2023/08/03 00:22:20;;;;;;;5.77;3.03;;;17.10;99.90;;;;;;4977907;28;20183;-69
2023/08/03 00:24:46;;;;;;;7.27;3.33;;;17.10;99.90;;;;;;4976750;28;20263;-69
2023/08/03 00:27:11;;;;;;;6.60;3.03;;;17.10;99.90;;;;;;4980788;28;20623;-69
2023/08/03 00:29:37;;;;;;;5.33;3.57;;;17.10;99.90;;;;;;4973503;28;20273;-69
2023/08/03 00:32:04;;;;;;;3.97;2.73;;;17.10;99.90;;;;;;4974290;28;20214;-69
2023/08/03 00:34:32;;;;;;;6.80;2.60;;;17.10;99.90;;;;;;4975551;28;20553;-69
2023/08/03 00:36:58;;;;;;;8.87;2.80;;;17.10;99.90;;;;;;4987901;28;20454;-69
2023/08/03 00:39:24;;;;;;;6.23;2.10;;;17.10;99.90;;;;;;4974041;28;20959;-69
2023/08/03 00:41:50;;;;;;;7.33;2.60;;;17.10;99.90;;;;;;4971313;28;20471;-69
2023/08/03 00:44:16;;;;;;;7.07;3.33;;;17.10;99.90;;;;;;4970871;28;20191;-69
2023/08/03 00:46:41;;;;;;;6.10;4.57;;;17.10;99.90;;;;;;4980601;28;20435;-69
2023/08/03 00:49:07;;;;;;;6.73;2.93;;;17.00;99.90;;;;;;4974916;28;20579;-69
2023/08/03 00:51:33;;;;;;;9.70;3.00;;;17.10;99.90;;;;;;4978725;28;20184;-69
2023/08/03 00:53:58;;;;;;;17.20;3.40;;;17.10;99.90;;;;;;4976052;28;20184;-69
2023/08/03 00:56:24;;;;;;;10.43;3.80;;;17.10;99.90;;;;;;4973022;28;20185;-69
2023/08/03 00:58:49;;;;;;;6.90;2.93;;;17.10;99.90;;;;;;4972190;28;20246;-69
2023/08/03 01:01:15;;;;;;;8.43;3.10;;;17.00;99.90;;;;;;4984831;28;20179;-69
2023/08/03 01:03:40;;;;;;;9.40;3.10;;;17.00;99.90;;;;;;4977839;28;20184;-69
2023/08/03 01:06:06;;;;;;;11.47;2.80;;;17.00;99.90;;;;;;4972027;28;20247;-69
2023/08/03 01:08:31;;;;;;;9.30;2.77;;;17.00;99.90;;;;;;4972621;28;21204;-69
2023/08/03 01:10:57;;;;;;;5.97;3.10;;;17.10;99.90;;;;;;4978861;28;20670;-69
2023/08/03 01:13:23;;;;;;;5.43;2.87;;;17.00;99.90;;;;;;4969074;28;20192;-69
2023/08/03 01:15:48;;;;;;;5.60;3.10;;;17.00;99.90;;;;;;4969769;28;20188;-69
2023/08/03 01:18:14;;;;;;;5.00;2.77;;;17.10;99.90;;;;;;4975685;28;20262;-69
2023/08/03 01:20:42;;;;;;;8.10;2.40;;;17.20;99.90;;;;;;4979871;28;20177;-69
2023/08/03 01:23:08;;;;;;;4.70;2.67;;;17.20;99.90;;;;;;4972857;28;20650;-69
2023/08/03 01:25:35;;;;;;;6.47;2.47;;;17.10;99.90;;;;;;4969863;28;20447;-69
2023/08/03 01:28:03;;;;;;;7.90;2.77;;;17.20;99.90;;;;;;4973417;28;20490;-69
2023/08/03 01:30:29;;;;;;;3.20;2.20;;;17.20;99.90;;;;;;4982891;28;20475;-69
2023/08/03 01:32:54;;;;;;;5.80;2.87;;;17.20;99.90;;;;;;4971945;28;20551;-69
2023/08/03 01:35:20;;;;;;;3.50;2.53;;;17.30;99.90;;;;;;4970109;28;20438;-69
2023/08/03 01:37:46;;;;;;;7.83;3.80;;;17.30;99.90;;;;;;4969124;28;20596;-70
2023/08/03 01:40:12;;;;;;;6.90;2.80;;;17.30;99.90;;;;;;4985191;28;20202;-70
2023/08/03 01:42:39;;;;;;;3.87;2.57;;;17.30;99.90;;;;;;4974997;28;20203;-69
2023/08/03 01:45:06;;;;;;;8.13;2.70;;;17.30;99.90;;;;;;4975281;28;20953;-70
2023/08/03 01:47:32;;;;;;;8.70;2.87;;;17.20;99.90;;;;;;4974099;28;20458;-70
2023/08/03 01:49:57;;;;;;;4.67;2.50;;;17.20;99.90;;;;;;4971130;28;20944;-70
2023/08/03 01:52:23;;;;;;;3.80;2.27;;;17.20;99.90;;;;;;4970918;28;20199;-69
2023/08/03 01:54:48;;;;;;;4.80;2.73;;;17.20;99.90;;;;;;4972291;28;20183;-69
2023/08/03 01:57:14;;;;;;;5.97;2.73;;;17.10;99.90;;;;;;4978594;28;20214;-70
2023/08/03 01:59:41;;;;;;;5.67;3.03;;;17.10;99.90;;;;;;4969905;28;20176;-69
2023/08/03 02:02:06;;;;;;;6.30;2.10;;;17.10;99.90;;;;;;4979177;28;20441;-70
2023/08/03 02:04:32;;;;;;;4.73;2.10;;;17.10;99.90;;;;;;4980021;28;20435;-70
2023/08/03 02:07:15;;;;;;;5.47;2.00;;;17.10;99.90;;;;;;4972889;28;20210;-70
2023/08/03 02:09:41;;;;;;;3.43;1.97;;;17.10;99.90;;;;;;4968238;28;20216;-70
2023/08/03 02:12:07;;;;;;;6.67;2.20;;;17.10;99.90;;;;;;4976963;28;20475;-70
2023/08/03 02:14:32;;;;;;;3.50;1.63;;;17.00;99.90;;;;;;4985886;28;20186;-70
2023/08/03 02:16:58;;;;;;;7.50;2.33;;;16.90;99.90;;;;;;4966804;28;20503;-70
2023/08/03 02:19:23;;;;;;;3.63;2.73;;;16.90;99.90;;;;;;4976182;28;20196;-70
2023/08/03 02:21:49;;;;;;;7.20;2.40;;;16.90;99.90;;;;;;4976789;28;20559;-70
2023/08/03 02:24:14;;;;;;;5.80;2.97;;;16.90;99.90;;;;;;4972426;28;20188;-70
2023/08/03 02:26:40;;;;;;;6.27;2.13;;;16.90;99.90;;;;;;4972370;28;20241;-69
2023/08/03 02:29:05;;;;;;;5.20;2.37;;;16.90;99.90;;;;;;4982482;28;20208;-70
2023/08/03 02:31:31;;;;;;;5.53;1.70;;;16.90;99.90;;;;;;4987418;28;20194;-70
2023/08/03 02:33:56;;;;;;;8.73;2.70;;;16.90;99.90;;;;;;4975782;28;20845;-70
2023/08/03 02:36:22;;;;;;;4.70;2.40;;;16.80;99.90;;;;;;4967407;28;20168;-70
2023/08/03 02:38:47;;;;;;;6.40;2.47;;;16.80;99.90;;;;;;4980516;28;20258;-69
2023/08/03 02:41:13;;;;;;;9.63;2.50;;;16.80;99.90;;;;;;4989793;28;20208;-69
2023/08/03 02:43:38;;;;;;;7.07;2.80;;;16.80;99.90;;;;;;4976216;28;20267;-69
2023/08/03 02:46:04;;;;;;;4.67;2.07;;;16.80;99.90;;;;;;4971735;28;20603;-70
2023/08/03 02:48:29;;;;;;;8.70;2.80;;;16.80;99.90;;;;;;4979021;28;20204;-70
2023/08/03 02:50:55;;;;;;;9.37;3.10;;;16.80;99.90;;;;;;4973861;28;20184;-70
2023/08/03 02:53:20;;;;;;;12.80;2.60;;;16.80;99.90;;;;;;4978679;28;20203;-70
2023/08/03 02:55:46;;;;;;;7.63;2.70;;;16.70;99.90;;;;;;4995625;28;20552;-70
2023/08/03 02:58:11;;;;;;;8.50;2.93;;;16.70;99.90;;;;;;4977102;28;20573;-70
2023/08/03 03:00:37;;;;;;;4.93;2.00;;;16.70;99.90;;;;;;4974984;28;20208;-70
2023/08/03 03:03:02;;;;;;;5.73;2.63;;;16.60;99.90;;;;;;4983273;28;20310;-70
2023/08/03 03:05:28;;;;;;;9.30;2.43;;;16.60;99.90;;;;;;4986525;28;20231;-70
2023/08/03 03:07:53;;;;;;;10.90;2.73;;;16.60;99.90;;;;;;4974836;28;20210;-69
2023/08/03 03:10:19;;;;;;;9.80;2.47;;;16.60;99.90;;;;;;4979317;28;20184;-69
2023/08/03 03:12:44;;;;;;;5.90;2.30;;;16.60;99.90;;;;;;4973652;28;20214;-70
2023/08/03 03:15:10;;;;;;;6.13;2.43;;;16.60;99.90;;;;;;4982673;28;20184;-70
2023/08/03 03:17:36;;;;;;;4.87;2.33;;;16.50;99.90;;;;;;4974374;28;20693;-70
2023/08/03 03:20:02;;;;;;;12.33;3.30;;;16.50;99.90;;;;;;4983817;28;20255;-70
2023/08/03 03:22:28;;;;;;;7.53;2.10;;;16.50;99.90;;;;;;4985332;28;20188;-70
2023/08/03 03:24:54;;;;;;;4.17;2.30;;;16.50;99.90;;;;;;4976855;28;21023;-70
2023/08/03 03:27:19;;;;;;;7.07;2.63;;;16.50;99.90;;;;;;4967465;28;20212;-70
2023/08/03 03:29:45;;;;;;;9.10;3.80;;;16.50;99.90;;;;;;4982471;28;20259;-70
2023/08/03 03:32:10;;;;;;;6.93;2.43;;;16.50;99.90;;;;;;4980667;28;20228;-70
2023/08/03 03:34:36;;;;;;;10.60;3.00;;;16.40;99.90;;;;;;4955528;28;20546;-69
2023/08/03 03:37:01;;;;;;;5.20;2.40;;;16.40;99.90;;;;;;4960178;28;20207;-70
2023/08/03 03:39:27;;;;;;;4.60;2.33;;;16.50;99.90;;;;;;4981611;28;20192;-70
2023/08/03 03:41:52;;;;;;;8.93;3.43;;;16.40;99.90;;;;;;4977057;28;20216;-69
2023/08/03 03:44:18;;;;;;;6.43;2.47;;;16.40;99.90;;;;;;4974761;28;20188;-70
2023/08/03 03:46:43;;;;;;;6.93;2.43;;;16.40;99.90;;;;;;4968748;28;20194;-70
2023/08/03 03:49:09;;;;;;;6.50;2.60;;;16.30;99.90;;;;;;4975444;28;20192;-70
2023/08/03 03:51:34;;;;;;;5.47;2.60;;;16.30;99.90;;;;;;4988839;28;20202;-70
2023/08/03 03:54:00;;;;;;;6.07;1.93;;;16.30;99.90;;;;;;4973820;28;20180;-70
2023/08/03 03:56:25;;;;;;;8.53;2.97;;;16.30;99.90;;;;;;4969484;28;20260;-70
2023/08/03 03:58:51;;;;;;;3.33;2.20;;;16.20;99.90;;;;;;4977425;28;20739;-70
2023/08/03 04:01:16;;;;;;;4.80;2.10;;;16.20;99.90;;;;;;4987463;28;20236;-70
2023/08/03 04:03:42;;;;;;;5.43;2.67;;;16.20;99.90;;;;;;4973116;28;20191;-70
2023/08/03 04:06:07;;;;;;;6.40;2.30;;;16.20;99.90;;;;;;4969378;28;20180;-70
2023/08/03 04:08:33;;;;;;;3.57;2.17;;;16.20;99.90;;;;;;4977540;28;20215;-70
2023/08/03 04:10:58;;;;;;;5.10;2.30;;;16.20;99.90;;;;;;4989780;28;20594;-70
2023/08/03 04:13:24;;;;;;;8.60;2.20;;;16.10;99.90;;;;;;4977418;28;20204;-70
2023/08/03 04:15:49;;;;;;;4.60;2.03;;;16.20;99.90;;;;;;4967916;28;20199;-70
2023/08/03 04:18:15;;;;;;;3.70;1.57;;;16.20;99.90;;;;;;4975588;28;20207;-70
2023/08/03 04:20:40;;;;;;;2.87;1.63;;;16.20;99.90;;;;;;4976719;28;20551;-70
2023/08/03 04:23:06;;;;;;;3.60;1.93;;;16.30;99.90;;;;;;4971560;28;20271;-71
2023/08/03 04:25:31;;;;;;;6.63;2.17;;;16.30;99.90;;;;;;4982351;28;20279;-71
2023/08/03 04:27:57;;;;;;;3.67;2.03;;;16.20;99.90;;;;;;4972646;28;20230;-71
2023/08/03 04:30:22;;;;;;;3.77;2.13;;;16.20;99.90;;;;;;4970463;28;20196;-70
2023/08/03 04:32:48;;;;;;;3.23;1.53;;;16.20;99.90;;;;;;4981214;28;20234;-71
2023/08/03 04:35:14;;;;;;;3.47;1.80;;;16.30;99.90;;;;;;4972794;28;20181;-71
2023/08/03 04:37:39;;;;;;;3.83;2.27;;;16.40;99.90;;;;;;4972952;28;20215;-72
2023/08/03 04:40:07;;;;;;;3.17;1.33;;;16.50;99.90;;;;;;4986519;28;20462;-72
2023/08/03 04:42:32;;;;;;;2.50;1.43;;;16.60;99.90;;;;;;5003817;28;20199;-73
2023/08/03 04:44:58;;;;;;;3.00;1.23;;;16.60;99.90;;;;;;5005811;28;20441;-71
2023/08/03 04:47:23;;;;;;;3.13;1.10;;;16.70;99.90;;;;;;4995537;28;20218;-71
2023/08/03 04:49:49;;;;;;;3.97;3.03;;;16.80;99.90;;;;;;4987304;28;20245;-69
2023/08/03 04:52:14;;;;;;;2.30;1.33;;;16.80;99.90;;;;;;4998006;28;20286;-71
2023/08/03 04:54:40;;;;;;;3.07;1.60;;;16.90;99.90;;;;;;5001142;28;20225;-71
2023/08/03 04:57:06;;;;;;;2.70;1.20;;;16.90;99.90;;;;;;5005774;28;20288;-71
2023/08/03 04:59:31;;;;;;;3.07;1.30;;;17.00;99.90;;;;;;5003751;28;20207;-71
2023/08/03 05:01:57;;;;;;;3.70;1.60;;;17.10;99.90;;;;;;5005212;28;20588;-71
2023/08/03 05:04:22;;;;;;;2.27;1.37;;;17.10;99.90;;;;;;5005113;28;20192;-71
2023/08/03 05:06:48;;;;;;;5.23;2.17;;;17.20;99.90;;;;;;5013155;28;20182;-71
2023/08/03 05:09:13;;;;;;;4.17;2.90;;;17.30;99.90;;;;;;5012308;28;20174;-71
2023/08/03 05:11:39;;;;;;;3.33;2.07;;;17.40;99.90;;;;;;5009711;28;20245;-71
2023/08/03 05:14:04;;;;;;;3.07;1.33;;;17.50;99.90;;;;;;5001609;28;20249;-71
2023/08/03 05:16:29;;;;;;;1.93;1.27;;;17.50;99.90;;;;;;5007169;28;20179;-70
2023/08/03 05:18:55;;;;;;;2.90;1.30;;;17.50;99.90;;;;;;4994548;28;20207;-71
2023/08/03 05:21:21;;;;;;;4.40;2.00;;;17.40;99.90;;;;;;4993895;28;20159;-70
2023/08/03 05:23:46;;;;;;;3.53;1.90;;;17.30;99.90;;;;;;5000789;28;20661;-70
2023/08/03 05:26:12;;;;;;;4.80;1.90;;;17.20;99.90;;;;;;5012960;28;20186;-70
2023/08/03 05:28:38;;;;;;;1.50;1.27;;;17.10;99.90;;;;;;5012504;28;20194;-70
2023/08/03 05:31:05;;;;;;;1.77;1.10;;;17.00;99.90;;;;;;5013507;28;20639;-70
2023/08/03 05:33:33;;;;;;;2.70;1.50;;;17.00;99.90;;;;;;5002189;28;20346;-70
2023/08/03 05:35:59;;;;;;;3.33;1.33;;;17.00;99.90;;;;;;5002960;28;20422;-70
2023/08/03 05:38:24;;;;;;;4.80;1.93;;;17.00;99.90;;;;;;5012284;28;20993;-70
2023/08/03 05:40:50;;;;;;;3.13;1.50;;;17.00;99.90;;;;;;5013201;28;20179;-70
2023/08/03 05:43:16;;;;;;;9.23;3.83;;;17.00;99.90;;;;;;5006814;28;20183;-70
2023/08/03 05:45:43;;;;;;;3.67;1.57;;;17.00;99.90;;;;;;5009016;28;20550;-69
2023/08/03 05:48:14;;;;;;;4.20;2.40;;;17.00;99.90;;;;;;5013094;28;20195;-69
2023/08/03 05:50:47;;;;;;;5.93;1.87;;;17.00;99.90;;;;;;5013104;28;20426;-70
2023/08/03 05:53:13;;;;;;;1.70;1.20;;;17.00;99.90;;;;;;5007086;28;20466;-70
2023/08/03 05:55:39;;;;;;;3.53;1.33;;;17.00;99.90;;;;;;5008792;28;20426;-70
2023/08/03 05:58:05;;;;;;;3.47;1.23;;;17.10;99.90;;;;;;5012375;28;20839;-70
2023/08/03 06:00:31;;;;;;;3.90;1.80;;;17.20;99.90;;;;;;5011155;28;20429;-70
2023/08/03 06:02:58;;;;;;;2.20;1.00;;;17.10;99.90;;;;;;5009003;28;20442;-71
2023/08/03 06:05:52;;;;;;;1.70;1.17;;;17.10;99.90;;;;;;5004904;28;20570;-70
2023/08/03 06:08:20;;;;;;;2.07;1.50;;;17.20;99.90;;;;;;5007707;28;20483;-70
2023/08/03 06:10:48;;;;;;;2.23;1.60;;;17.20;99.90;;;;;;5013290;28;20450;-70
2023/08/03 06:13:17;;;;;;;3.70;1.37;;;17.20;99.90;;;;;;5007344;28;20462;-70
2023/08/03 06:15:44;;;;;;;2.20;1.90;;;17.30;99.90;;;;;;5008920;28;20843;-70
2023/08/03 06:18:15;;;;;;;4.27;1.57;;;17.40;99.90;;;;;;5012613;28;20540;-71
2023/08/03 06:20:44;;;;;;;3.87;1.70;;;17.40;99.90;;;;;;5013178;28;20418;-70
2023/08/03 06:23:22;;;;;;;3.43;2.00;;;17.40;99.90;;;;;;4999974;28;20456;-69
2023/08/03 06:25:49;;;;;;;2.80;1.70;;;17.40;99.90;;;;;;4997795;28;20422;-70
2023/08/03 06:28:19;;;;;;;4.10;2.77;;;17.50;99.90;;;;;;4991405;28;20482;-70
2023/08/03 06:30:46;;;;;;;3.00;1.50;;;17.70;99.90;;;;;;4977853;28;20502;-70
2023/08/03 06:33:13;;;;;;;4.50;1.97;;;18.00;99.90;;;;;;4989715;28;20476;-70
2023/08/03 06:35:44;;;;;;;3.67;2.40;;;18.10;99.90;;;;;;5004972;28;20429;-70
2023/08/03 06:38:12;;;;;;;3.07;1.70;;;18.40;99.90;;;;;;5013495;28;20473;-70
2023/08/03 06:40:40;;;;;;;1.97;1.77;;;18.60;99.90;;;;;;5029354;28;20905;-70
2023/08/03 06:43:06;;;;;;;2.23;1.47;;;18.90;99.90;;;;;;5005995;28;20872;-70
2023/08/03 06:45:33;;;;;;;3.33;1.63;;;19.20;99.90;;;;;;4999585;28;20442;-70
2023/08/03 06:47:59;;;;;;;2.17;1.60;;;19.20;99.90;;;;;;5009161;28;20453;-70
2023/08/03 06:50:29;;;;;;;2.00;1.20;;;19.30;99.90;;;;;;5011872;28;20422;-69
2023/08/03 06:52:55;;;;;;;2.60;1.70;;;19.40;99.90;;;;;;4997105;28;20466;-70
2023/08/03 06:55:21;;;;;;;2.63;1.30;;;19.50;99.90;;;;;;5005161;28;20432;-72
2023/08/03 06:57:46;;;;;;;3.03;1.40;;;19.60;99.90;;;;;;5013388;28;20437;-71
2023/08/03 07:00:15;;;;;;;4.00;1.80;;;19.80;99.90;;;;;;5010949;28;20183;-72
2023/08/03 07:02:42;;;;;;;1.87;1.37;;;19.80;99.90;;;;;;5004825;28;20187;-71
2023/08/03 07:05:08;;;;;;;4.40;1.27;;;19.90;99.90;;;;;;5002526;28;20433;-72
2023/08/03 07:07:34;;;;;;;2.40;1.63;;;20.10;99.90;;;;;;5026630;28;20825;-72
2023/08/03 07:10:00;;;;;;;4.97;2.60;;;20.30;99.90;;;;;;5014130;28;20493;-71
2023/08/03 07:12:26;;;;;;;2.47;1.40;;;20.30;99.90;;;;;;5016021;28;20204;-72
2023/08/03 07:14:51;;;;;;;2.70;1.20;;;20.40;99.90;;;;;;5010155;28;20453;-72
2023/08/03 07:17:17;;;;;;;1.33;1.00;;;20.50;99.90;;;;;;5020473;28;20461;-72
2023/08/03 07:19:43;;;;;;;4.50;1.60;;;20.50;99.90;;;;;;5019579;28;20657;-71
2023/08/03 07:22:09;;;;;;;1.90;1.43;;;20.50;99.90;;;;;;5018538;28;20683;-71
2023/08/03 07:24:35;;;;;;;4.90;1.50;;;20.50;99.90;;;;;;5002674;28;20481;-71
2023/08/03 07:27:01;;;;;;;2.67;1.10;;;20.60;99.90;;;;;;5013286;28;20445;-71
2023/08/03 07:29:32;;;;;;;2.77;1.50;;;20.70;99.90;;;;;;5014245;28;20422;-71
2023/08/03 07:31:57;;;;;;;4.80;1.60;;;20.80;99.90;;;;;;5014910;28;20800;-71
2023/08/03 07:34:23;;;;;;;2.50;1.13;;;21.10;99.90;;;;;;5003623;28;20561;-71
2023/08/03 07:36:56;;;;;;;6.10;1.20;;;21.30;99.90;;;;;;5010153;28;20210;-71
2023/08/03 07:39:22;;;;;;;1.80;1.20;;;21.40;99.90;;;;;;5013989;28;20225;-71
2023/08/03 07:41:48;;;;;;;2.00;1.07;;;21.50;99.90;;;;;;5014526;28;20418;-71
2023/08/03 07:44:15;;;;;;;4.60;1.70;;;21.50;99.90;;;;;;5005060;28;20179;-71
2023/08/03 07:46:41;;;;;;;1.83;1.53;;;21.30;99.90;;;;;;5010200;28;20472;-71
2023/08/03 07:49:06;;;;;;;2.30;1.07;;;21.40;99.90;;;;;;5013264;28;20410;-71
2023/08/03 07:51:32;;;;;;;1.70;1.07;;;21.50;99.90;;;;;;5014571;28;20177;-71
2023/08/03 07:53:58;;;;;;;2.03;1.20;;;21.60;99.90;;;;;;5007336;28;20297;-71
2023/08/03 07:56:23;;;;;;;4.20;1.50;;;21.50;99.90;;;;;;5008103;28;20185;-71
2023/08/03 07:58:50;;;;;;;2.23;1.30;;;21.50;99.90;;;;;;5013823;28;20186;-71
2023/08/03 08:01:17;;;;;;;3.23;1.43;;;21.60;99.90;;;;;;5013409;28;20171;-71
2023/08/03 08:03:43;;;;;;;1.60;1.00;;;21.50;99.90;;;;;;5005254;28;20454;-70
2023/08/03 08:06:10;;;;;;;2.90;1.40;;;21.30;99.90;;;;;;5006261;28;20478;-71
2023/08/03 08:08:37;;;;;;;2.40;1.43;;;21.20;99.90;;;;;;5013878;28;20755;-71
2023/08/03 08:11:02;;;;;;;6.63;1.50;;;21.20;99.90;;;;;;5014712;28;21003;-71
2023/08/03 08:13:28;;;;;;;2.00;1.70;;;21.40;99.90;;;;;;5005800;28;20564;-71
2023/08/03 08:16:04;;;;;;;3.00;1.60;;;21.50;99.90;;;;;;5006251;28;20174;-71
2023/08/03 08:18:31;;;;;;;2.60;1.33;;;21.60;99.90;;;;;;5013464;28;20309;-71
2023/08/03 08:21:00;;;;;;;2.70;1.20;;;21.70;99.90;;;;;;5008879;28;20545;-71
2023/08/03 08:23:26;;;;;;;2.13;1.23;;;22.10;99.90;;;;;;5002593;28;20961;-72
2023/08/03 08:25:51;;;;;;;2.93;1.30;;;22.70;99.90;;;;;;5012008;28;20479;-71
2023/08/03 08:28:17;;;;;;;2.53;1.33;;;22.30;99.90;;;;;;5013262;28;20590;-71
2023/08/03 08:30:46;;;;;;;2.03;1.23;;;22.00;99.90;;;;;;5014131;28;20552;-71
2023/08/03 08:33:14;;;;;;;3.00;1.30;;;22.10;99.90;;;;;;5007209;28;20470;-70
2023/08/03 08:35:40;;;;;;;1.90;1.00;;;22.40;99.90;;;;;;5005566;28;20457;-70
2023/08/03 08:38:08;;;;;;;2.90;1.60;;;22.90;99.90;;;;;;5014853;28;20485;-70
2023/08/03 08:40:35;;;;;;;2.33;1.20;;;23.00;99.90;;;;;;5014386;28;20637;-70
2023/08/03 08:43:01;;;;;;;2.50;1.20;;;22.60;99.90;;;;;;5009919;28;20980;-70
2023/08/03 08:45:26;;;;;;;2.30;1.23;;;22.20;99.90;;;;;;5008092;28;20433;-70
2023/08/03 08:47:52;;;;;;;1.63;1.30;;;22.40;99.90;;;;;;5011000;28;20584;-67
2023/08/03 08:50:17;;;;;;;2.23;1.13;;;22.90;99.90;;;;;;5012776;28;20191;-67
2023/08/03 08:52:44;;;;;;;2.47;1.60;;;23.20;99.90;;;;;;4993324;28;20250;-68
2023/08/03 08:55:15;;;;;;;2.53;1.10;;;23.20;99.90;;;;;;5010035;28;20213;-68
2023/08/03 08:57:40;;;;;;;2.77;1.10;;;23.40;99.90;;;;;;5014682;28;20480;-68
2023/08/03 09:00:07;;;;;;;1.87;1.10;;;23.90;99.90;;;;;;5011796;28;20857;-68
2023/08/03 09:02:34;;;;;;;2.50;1.03;;;24.20;97.60;;;;;;5011150;28;20269;-68
2023/08/03 09:05:20;;;;;;;1.77;1.03;;;24.10;98.10;;;;;;5005501;28;20433;-68
2023/08/03 09:07:58;;;;;;;1.47;0.90;;;23.80;97.70;;;;;;5013116;28;20445;-67
2023/08/03 09:10:23;;;;;;;2.10;1.03;;;23.50;97.60;;;;;;5012974;28;20513;-67
2023/08/03 09:12:49;;;;;;;3.13;1.13;;;23.00;98.80;;;;;;5009686;28;20903;-68
2023/08/03 09:15:15;;;;;;;1.10;1.00;;;23.10;99.90;;;;;;5005322;28;20182;-70
2023/08/03 09:17:42;;;;;;;2.80;1.03;;;23.30;99.00;;;;;;5013600;28;20493;-68
2023/08/03 09:20:25;;;;;;;1.90;0.87;;;23.20;99.10;;;;;;5012395;28;20167;-68
2023/08/03 09:22:50;;;;;;;1.00;0.87;;;23.60;98.30;;;;;;5002262;28;20454;-67
2023/08/03 09:25:16;;;;;;;1.93;1.30;;;24.00;97.10;;;;;;5000476;28;21187;-67
2023/08/03 09:27:49;;;;;;;0.87;0.87;;;24.20;96.70;;;;;;5000677;28;20216;-67
2023/08/03 09:30:15;;;;;;;1.60;1.17;;;24.10;97.20;;;;;;4973400;28;20176;-67
2023/08/03 09:32:41;;;;;;;1.10;0.90;;;24.40;95.40;;;;;;4995157;28;20507;-68
2023/08/03 09:35:17;;;;;;;1.30;0.90;;;24.60;94.80;;;;;;5001174;28;20673;-68
2023/08/03 09:37:43;;;;;;;1.13;0.80;;;24.00;95.90;;;;;;5008632;28;20269;-67
2023/08/03 09:40:09;;;;;;;2.87;1.20;;;24.00;96.20;;;;;;5012352;28;20851;-67
2023/08/03 09:42:37;;;;;;;2.20;1.17;;;24.10;96.30;;;;;;5002448;28;20302;-67
2023/08/03 09:45:03;;;;;;;2.60;0.90;;;24.10;96.10;;;;;;5000419;28;20454;-67
2023/08/03 09:47:32;;;;;;;1.37;0.90;;;23.90;97.10;;;;;;4997428;28;20534;-67
2023/08/03 09:49:58;;;;;;;2.83;1.53;;;23.70;97.50;;;;;;5002702;28;20517;-68
2023/08/03 09:52:29;;;;;;;2.50;1.50;;;23.40;97.40;;;;;;5006939;28;20549;-68
2023/08/03 09:55:07;;;;;;;2.93;1.10;;;23.60;99.40;;;;;;5002297;28;20429;-69
2023/08/03 09:57:37;;;;;;;2.07;1.10;;;24.10;97.10;;;;;;5012998;28;20441;-69
2023/08/03 10:00:07;;;;;;;2.00;1.00;;;24.40;95.40;;;;;;5011855;28;20943;-69
2023/08/03 10:02:48;;;;;;;0.70;0.70;;;24.30;95.70;;;;;;4999519;28;20533;-69
2023/08/03 10:05:18;;;;;;;1.70;1.10;;;23.80;96.30;;;;;;4991803;28;20453;-69
2023/08/03 10:08:02;;;;;;;1.00;0.80;;;23.40;97.80;;;;;;5004716;28;20544;-68
2023/08/03 10:10:31;;;;;;;3.47;0.90;;;23.00;99.90;;;;;;5011606;28;20425;-71
2023/08/03 10:13:02;;;;;;;2.27;0.73;;;22.70;99.20;;;;;;5003442;28;20588;-70
2023/08/03 10:15:28;;;;;;;1.13;1.03;;;22.60;99.90;;;;;;5003786;28;20437;-68
2023/08/03 10:17:54;;;;;;;2.67;0.90;;;22.70;99.90;;;;;;5009554;28;20497;-69
2023/08/03 10:20:21;;;;;;;1.77;1.40;;;22.70;99.40;;;;;;5011003;28;20433;-68
2023/08/03 10:23:19;;;;;;;2.70;1.33;;;22.90;99.80;;;;;;5003875;28;20450;-69
2023/08/03 10:25:57;;;;;;;1.47;0.90;;;23.00;99.90;;;;;;4977151;28;20440;-69
2023/08/03 10:28:26;;;;;;;1.60;1.30;;;23.00;99.80;;;;;;4989691;28;20457;-69
2023/08/03 10:31:14;;;;;;;1.10;0.83;;;22.90;99.70;;;;;;5011809;28;21063;-70
2023/08/03 10:33:49;;;;;;;3.63;1.10;;;22.60;99.90;;;;;;5003682;28;20477;-69
2023/08/03 10:36:29;;;;;;;2.30;1.03;;;22.70;99.90;;;;;;4987269;28;20561;-69
2023/08/03 10:39:04;;;;;;;2.00;0.90;;;22.40;99.90;;;;;;4986890;28;21030;-69
2023/08/03 10:41:37;;;;;;;3.40;1.27;;;22.30;99.90;;;;;;4981012;28;20437;-69
2023/08/03 10:44:05;;;;;;;0.87;0.87;;;22.20;99.90;;;;;;4992175;28;20442;-69
2023/08/03 10:46:42;;;;;;;2.30;0.90;;;22.10;99.90;;;;;;4993360;28;20438;-69
2023/08/03 10:49:19;;;;;;;2.27;1.00;;;22.00;99.90;;;;;;5014899;28;20421;-69
2023/08/03 10:51:46;;;;;;;1.10;1.00;;;22.10;99.90;;;;;;5015379;28;20967;-70
2023/08/03 10:54:12;;;;;;;1.60;1.00;;;22.20;99.90;;;;;;5002915;28;20529;-69
2023/08/03 10:56:37;;;;;;;1.70;0.90;;;22.20;99.90;;;;;;5003348;28;20536;-71
2023/08/03 10:59:04;;;;;;;2.83;1.33;;;22.30;99.90;;;;;;5006340;28;20663;-69
2023/08/03 11:01:30;;;;;;;1.53;1.43;;;22.30;99.90;;;;;;5014763;28;20179;-70
2023/08/03 11:03:55;;;;;;;17.17;1.50;;;22.20;99.90;;;;;;5007924;28;20778;-69
2023/08/03 11:06:22;;;;;;;1.40;0.83;;;22.20;99.90;;;;;;5008587;28;20183;-69
2023/08/03 11:08:47;;;;;;;1.87;1.07;;;22.30;99.90;;;;;;5009095;28;20311;-69
2023/08/03 11:11:16;;;;;;;3.00;1.00;;;22.60;99.90;;;;;;5015093;28;20429;-70
2023/08/03 11:13:44;;;;;;;2.20;1.20;;;23.40;99.20;;;;;;5008081;28;20206;-70
2023/08/03 11:16:15;;;;;;;2.13;1.40;;;23.70;97.10;;;;;;5006137;28;20430;-69
2023/08/03 11:18:47;;;;;;;1.17;0.60;;;24.00;96.90;;;;;;5014632;28;20465;-70
2023/08/03 11:21:14;;;;;;;2.30;1.10;;;24.00;96.20;;;;;;5014882;28;20449;-71
2023/08/03 11:23:41;;;;;;;0.90;0.80;;;23.80;96.20;;;;;;5008532;28;20963;-71
2023/08/03 11:26:09;;;;;;;1.30;0.80;;;23.60;96.40;;;;;;5006360;28;20433;-70
2023/08/03 11:28:42;;;;;;;2.13;1.87;;;23.40;97.40;;;;;;5013614;28;20223;-69
2023/08/03 11:31:21;;;;;;;2.43;0.80;;;23.20;97.00;;;;;;5003757;28;20422;-71
2023/08/03 11:33:54;;;;;;;0.90;0.80;;;23.10;98.30;;;;;;4993507;28;20879;-71
2023/08/03 11:36:22;;;;;;;2.03;1.47;;;23.80;97.10;;;;;;5000060;28;20530;-70
2023/08/03 11:38:49;;;;;;;1.20;0.73;;;23.80;96.10;;;;;;5013761;28;20450;-70
2023/08/03 11:41:16;;;;;;;1.13;0.90;;;23.90;96.00;;;;;;5013897;28;20426;-70
2023/08/03 11:43:42;;;;;;;2.57;1.70;;;23.80;95.70;;;;;;5009199;28;20442;-70
2023/08/03 11:46:07;;;;;;;2.50;1.00;;;23.50;97.40;;;;;;5005779;28;20452;-70
2023/08/03 11:48:33;;;;;;;2.87;1.20;;;23.60;97.90;;;;;;5013521;28;20281;-71
2023/08/03 11:50:59;;;;;;;5.13;1.00;;;24.30;96.40;;;;;;5014826;28;20178;-71
2023/08/03 11:53:26;;;;;;;1.47;0.90;;;24.30;96.00;;;;;;5012068;28;20269;-72
2023/08/03 11:55:52;;;;;;;2.63;0.90;;;24.50;95.50;;;;;;5005964;28;20430;-71
2023/08/03 11:58:25;;;;;;;1.53;1.20;;;24.50;95.40;;;;;;5007791;28;20463;-70
2023/08/03 12:00:58;;;;;;;2.17;1.13;;;24.10;96.50;;;;;;4997121;28;20497;-71
2023/08/03 12:03:34;;;;;;;0.97;0.87;;;23.60;97.50;;;;;;5001261;28;20521;-70
2023/08/03 12:06:10;;;;;;;2.00;1.07;;;23.70;97.60;;;;;;4984676;28;20490;-70
2023/08/03 12:08:46;;;;;;;2.10;0.97;;;25.60;93.00;;;;;;4974057;28;20463;-70
2023/08/03 12:11:16;;;;;;;1.70;0.80;;;25.90;90.30;;;;;;4997438;28;20541;-71
2023/08/03 12:13:43;;;;;;;1.63;0.97;;;25.80;91.00;;;;;;5006320;28;20450;-70
2023/08/03 12:16:09;;;;;;;2.00;1.23;;;25.80;90.20;;;;;;4989414;28;20442;-70
2023/08/03 12:18:34;;;;;;;5.77;2.73;;;25.40;90.40;;;;;;4994012;28;20469;-70
2023/08/03 12:21:00;;;;;;;1.40;1.00;;;25.10;90.80;;;;;;4994223;28;20164;-70
2023/08/03 12:23:25;;;;;;;2.57;1.73;;;24.30;93.90;;;;;;5012632;28;20182;-70
2023/08/03 12:25:52;;;;;;;1.23;0.80;;;23.80;94.40;;;;;;5001959;28;20213;-70
2023/08/03 12:28:18;;;;;;;3.30;1.00;;;23.50;94.10;;;;;;5012428;28;20681;-70
2023/08/03 12:30:44;;;;;;;1.13;1.00;;;23.60;95.30;;;;;;5013453;28;20946;-70
2023/08/03 12:33:10;;;;;;;5.50;1.20;;;23.60;95.50;;;;;;5013080;28;20449;-70
2023/08/03 12:35:36;;;;;;;1.30;0.93;;;23.50;96.80;;;;;;5002927;28;20326;-70
2023/08/03 12:38:02;;;;;;;3.03;1.10;;;23.90;96.90;;;;;;5003331;28;20514;-70
2023/08/03 12:40:28;;;;;;;2.13;0.80;;;25.00;94.20;;;;;;5012787;28;20175;-70
2023/08/03 12:42:54;;;;;;;0.90;0.90;;;27.00;90.20;;;;;;5013461;28;20771;-68
2023/08/03 12:45:20;;;;;;;1.37;0.93;;;27.80;83.40;;;;;;5005468;28;20295;-67